createdAt,value
2022-10-14T00:00:07.215Z,13.80
2022-10-14T00:05:09.927Z,14.06
2022-10-14T00:10:11.124Z,13.91
2022-10-14T00:15:12.473Z,13.82
2022-10-14T00:20:13.687Z,13.87
2022-10-14T00:25:14.930Z,13.94
2022-10-14T00:30:16.203Z,13.93
2022-10-14T00:35:18.031Z,13.68
2022-10-14T00:40:19.252Z,13.90
2022-10-14T00:45:20.865Z,13.84
2022-10-14T00:50:22.303Z,13.77
2022-10-14T00:55:23.536Z,13.88
2022-10-14T01:00:24.875Z,13.55
2022-10-14T01:05:26.135Z,13.78
2022-10-14T01:10:27.374Z,13.77
2022-10-14T01:15:28.582Z,13.74
2022-10-14T01:20:29.786Z,13.85
2022-10-14T01:25:31.232Z,13.81
2022-10-14T01:30:32.491Z,13.89
2022-10-14T01:35:34.326Z,13.92
2022-10-14T01:40:35.791Z,13.95
2022-10-14T01:45:37.055Z,13.97
2022-10-14T01:50:38.407Z,13.96
2022-10-14T01:55:39.632Z,13.91
2022-10-14T02:00:40.875Z,13.96
2022-10-14T02:05:42.261Z,13.73
2022-10-14T02:10:43.509Z,13.58
2022-10-14T02:15:44.775Z,13.69
2022-10-14T02:20:46.019Z,13.76
2022-10-14T02:25:47.216Z,13.77
2022-10-14T02:30:48.735Z,13.87
2022-10-14T02:35:49.978Z,13.88
2022-10-14T02:40:51.239Z,14.01
2022-10-14T02:45:52.445Z,13.80
2022-10-14T02:50:53.680Z,13.86
2022-10-14T02:55:54.893Z,13.84
2022-10-14T03:00:56.163Z,13.84
2022-10-14T03:05:57.491Z,13.89
2022-10-14T03:10:59.003Z,13.77
2022-10-14T03:16:00.374Z,13.84
2022-10-14T03:21:01.670Z,13.91
2022-10-14T03:26:02.929Z,13.94
2022-10-14T03:31:04.183Z,13.89
2022-10-14T03:36:05.407Z,14.00
2022-10-14T03:41:06.619Z,13.99
2022-10-14T03:46:07.835Z,13.94
2022-10-14T03:51:09.103Z,13.86
2022-10-14T03:56:10.368Z,13.66
2022-10-14T04:01:11.625Z,13.69
2022-10-14T04:06:14.264Z,13.48
2022-10-14T04:11:16.758Z,13.47
2022-10-14T04:16:17.987Z,13.27
2022-10-14T04:21:19.250Z,13.29
2022-10-14T04:26:20.470Z,13.17
2022-10-14T04:31:22.935Z,13.28
2022-10-14T04:36:24.167Z,13.24
2022-10-14T04:41:25.395Z,13.24
2022-10-14T04:46:26.645Z,13.34
2022-10-14T04:51:27.930Z,13.62
2022-10-14T04:56:29.212Z,13.70
2022-10-14T05:01:33.921Z,13.74
2022-10-14T05:06:37.377Z,13.78
2022-10-14T05:11:38.714Z,13.87
2022-10-14T05:16:39.984Z,13.99
2022-10-14T05:21:41.201Z,13.97
2022-10-14T05:26:42.466Z,13.80
2022-10-14T05:31:43.882Z,13.74
2022-10-14T05:36:45.088Z,13.87
2022-10-14T05:41:46.670Z,13.83
2022-10-14T05:46:48.087Z,13.94
2022-10-14T05:51:49.425Z,13.88
2022-10-14T05:56:50.712Z,13.72
2022-10-14T06:01:51.956Z,13.75
2022-10-14T06:06:53.168Z,13.70
2022-10-14T06:11:54.495Z,13.76
2022-10-14T06:16:55.807Z,13.80
2022-10-14T06:21:57.179Z,13.94
2022-10-14T06:26:58.440Z,14.11
2022-10-14T06:31:59.675Z,13.99
2022-10-14T06:37:02.361Z,14.02
2022-10-14T06:42:03.942Z,13.83
2022-10-14T06:47:05.165Z,13.84
2022-10-14T06:52:06.384Z,13.71
2022-10-14T06:57:07.718Z,13.84
2022-10-14T07:02:08.969Z,14.01
2022-10-14T07:07:10.371Z,14.10
2022-10-14T07:12:11.604Z,14.15
2022-10-14T07:17:12.890Z,14.19
2022-10-14T07:22:14.192Z,13.99
2022-10-14T07:27:20.625Z,13.99
2022-10-14T07:32:22.219Z,14.09
2022-10-14T07:37:23.929Z,14.24
2022-10-14T07:42:25.446Z,14.17
2022-10-14T07:47:26.656Z,14.29
2022-10-14T07:52:27.881Z,14.28
2022-10-14T07:57:29.112Z,14.42
2022-10-14T08:02:30.314Z,14.72
2022-10-14T08:07:31.688Z,15.01
2022-10-14T08:12:32.930Z,15.07
2022-10-14T08:17:34.259Z,15.16
2022-10-14T08:22:35.529Z,15.16
2022-10-14T08:27:36.741Z,15.20
2022-10-14T08:32:38.716Z,15.25
2022-10-14T08:37:39.918Z,15.11
2022-10-14T08:42:41.401Z,15.37
2022-10-14T08:47:42.730Z,15.48
2022-10-14T08:52:44.009Z,15.66
2022-10-14T08:57:45.356Z,15.76
2022-10-14T09:02:46.663Z,15.74
2022-10-14T09:07:48.047Z,15.64
2022-10-14T09:12:49.656Z,16.01
2022-10-14T09:17:51.020Z,16.08
2022-10-14T09:27:53.566Z,16.14
2022-10-14T09:32:54.912Z,16.05
2022-10-14T09:37:56.167Z,16.00
2022-10-14T09:42:57.415Z,16.10
2022-10-14T09:47:58.647Z,16.27
2022-10-14T09:53:00.015Z,16.27
2022-10-14T09:58:03.616Z,16.68
2022-10-14T10:03:04.880Z,16.50
2022-10-14T10:08:06.464Z,16.56
2022-10-14T10:13:07.714Z,16.47
2022-10-14T10:18:08.940Z,16.37
2022-10-14T10:23:10.170Z,16.14
2022-10-14T10:28:13.375Z,16.73
2022-10-14T10:33:14.699Z,16.81
2022-10-14T10:38:15.907Z,16.94
2022-10-14T10:43:18.591Z,16.88
2022-10-14T10:48:21.186Z,17.25
2022-10-14T10:53:23.011Z,17.25
2022-10-14T10:58:26.338Z,17.17
2022-10-14T11:03:27.617Z,17.15
2022-10-14T11:08:47.612Z,17.21
2022-10-14T11:13:48.938Z,16.98
2022-10-14T11:18:50.225Z,17.37
2022-10-14T11:23:57.114Z,17.27
2022-10-14T11:28:59.562Z,17.22
2022-10-14T11:34:00.841Z,17.11
2022-10-14T11:39:02.175Z,17.63
2022-10-14T11:44:03.385Z,17.55
2022-10-14T11:49:04.653Z,17.64
2022-10-14T11:54:05.900Z,17.58
2022-10-14T11:59:19.351Z,17.79
2022-10-14T12:04:20.599Z,17.93
2022-10-14T12:09:21.815Z,17.95
2022-10-14T12:14:23.048Z,17.76
2022-10-14T12:19:24.854Z,17.71
2022-10-14T12:24:26.068Z,17.88
2022-10-14T12:29:27.270Z,17.83
2022-10-14T12:34:28.522Z,17.86
2022-10-14T12:39:29.857Z,17.74
2022-10-14T12:44:31.187Z,17.89
2022-10-14T12:49:32.446Z,18.12
2022-10-14T12:54:33.718Z,18.56
2022-10-14T12:59:36.463Z,18.75
2022-10-14T13:04:37.718Z,18.62
2022-10-14T13:09:39.041Z,18.40
2022-10-14T13:14:40.553Z,18.39
2022-10-14T13:19:43.561Z,18.72
2022-10-14T13:24:44.815Z,18.55
2022-10-14T13:29:46.048Z,18.54
2022-10-14T13:34:47.476Z,18.56
2022-10-14T13:39:48.766Z,18.42
2022-10-14T13:44:50.004Z,18.53
2022-10-14T13:49:51.354Z,18.20
2022-10-14T13:54:52.906Z,18.27
2022-10-14T14:05:15.502Z,18.11
2022-10-14T14:10:16.750Z,17.99
2022-10-14T14:15:17.967Z,18.25
2022-10-14T14:20:19.219Z,18.40
2022-10-14T14:25:43.055Z,19.31
2022-10-14T14:30:41.719Z,19.54
2022-10-14T14:35:43.107Z,19.22
2022-10-14T14:40:44.358Z,19.09
2022-10-14T14:45:46.435Z,18.94
2022-10-14T14:50:48.823Z,18.74
2022-10-14T14:55:50.061Z,18.71
2022-10-14T15:00:51.673Z,18.62
2022-10-14T15:05:53.032Z,18.39
2022-10-14T15:10:54.337Z,18.37
2022-10-14T15:15:55.629Z,18.22
2022-10-14T15:20:59.843Z,18.13
2022-10-14T15:26:01.082Z,17.85
2022-10-14T15:31:05.671Z,17.80
2022-10-14T15:36:07.865Z,17.97
2022-10-14T15:41:09.105Z,17.82
2022-10-14T15:46:29.134Z,17.83
2022-10-14T15:51:30.595Z,17.61
2022-10-14T15:56:31.868Z,17.88
2022-10-14T16:01:34.537Z,17.90
2022-10-14T16:06:37.152Z,17.80
2022-10-14T16:11:38.437Z,17.78
2022-10-14T16:16:39.686Z,17.77
2022-10-14T16:21:41.164Z,17.13
2022-10-14T16:26:42.370Z,17.98
2022-10-14T16:31:43.651Z,17.98
2022-10-14T16:36:45.005Z,17.58
2022-10-14T16:41:46.256Z,17.73
2022-10-14T16:47:06.320Z,17.21
2022-10-14T16:52:07.569Z,17.44
2022-10-14T16:57:08.978Z,17.49
2022-10-14T17:02:11.052Z,17.08
2022-10-14T17:07:14.710Z,17.02
2022-10-14T17:12:16.708Z,17.22
2022-10-14T17:17:18.178Z,17.13
2022-10-14T17:22:20.824Z,16.83
2022-10-14T17:27:24.213Z,17.10
2022-10-14T17:32:28.067Z,17.14
2022-10-14T17:37:30.897Z,16.68
2022-10-14T17:42:32.736Z,16.61
2022-10-14T17:47:34.106Z,16.53
2022-10-14T17:52:35.312Z,16.86
2022-10-14T17:57:37.272Z,16.56
2022-10-14T18:02:38.600Z,16.65
2022-10-14T18:07:39.943Z,16.73
2022-10-14T18:12:41.692Z,16.58
2022-10-14T18:17:43.271Z,16.42
2022-10-14T18:22:44.595Z,16.52
2022-10-14T18:27:46.552Z,16.52
2022-10-14T18:32:47.801Z,16.94
2022-10-14T18:37:49.055Z,18.03
2022-10-14T18:42:50.345Z,18.18
2022-10-14T18:47:52.986Z,17.62
2022-10-14T18:52:56.015Z,18.47
2022-10-14T18:57:57.238Z,18.85
2022-10-14T19:02:58.458Z,17.99
2022-10-14T19:08:00.227Z,17.35
2022-10-14T19:13:04.082Z,17.36
2022-10-14T19:18:05.387Z,17.18
2022-10-14T19:23:06.959Z,16.95
2022-10-14T19:28:09.600Z,16.66
2022-10-14T19:33:10.938Z,16.41
2022-10-14T19:38:12.146Z,16.59
2022-10-14T19:43:13.378Z,16.39
2022-10-14T19:48:14.595Z,16.40
2022-10-14T19:53:15.857Z,16.33
2022-10-14T19:58:17.090Z,16.33
2022-10-14T20:03:18.302Z,16.18
2022-10-14T20:08:19.642Z,16.12
2022-10-14T20:13:20.887Z,16.13
2022-10-14T20:18:22.123Z,16.21
2022-10-14T20:23:23.357Z,16.28
2022-10-14T20:28:24.615Z,16.28
2022-10-14T20:33:25.932Z,16.29
2022-10-14T20:38:27.228Z,16.12
2022-10-14T20:43:28.455Z,16.00
2022-10-14T20:48:30.528Z,15.98
2022-10-14T20:53:31.826Z,15.85
2022-10-14T20:58:33.083Z,15.80
2022-10-14T21:03:34.367Z,15.68
2022-10-14T21:08:35.748Z,15.95
2022-10-14T21:13:36.971Z,15.89
2022-10-14T21:18:38.184Z,15.95
2022-10-14T21:23:39.392Z,15.87
2022-10-14T21:28:40.636Z,15.85
2022-10-14T21:33:41.889Z,15.91
2022-10-14T21:38:43.285Z,15.90
2022-10-14T21:43:44.643Z,15.76
2022-10-14T21:48:45.919Z,15.63
2022-10-14T21:53:47.306Z,15.84
2022-10-14T21:58:48.766Z,15.86
2022-10-14T22:03:50.004Z,15.90
2022-10-14T22:08:51.213Z,15.67
2022-10-14T22:13:52.427Z,15.82
2022-10-14T22:18:53.789Z,15.68
2022-10-14T22:23:55.075Z,15.90
2022-10-14T22:28:56.397Z,16.04
2022-10-14T22:33:57.617Z,16.10
2022-10-14T22:38:58.935Z,16.00
2022-10-14T22:44:00.173Z,16.14
2022-10-14T22:49:02.119Z,15.70
2022-10-14T22:54:03.423Z,15.87
2022-10-14T22:59:04.694Z,15.98
2022-10-14T23:04:05.971Z,15.87
2022-10-14T23:09:07.235Z,15.93
2022-10-14T23:14:08.454Z,15.95
2022-10-14T23:19:09.675Z,15.94
2022-10-14T23:24:10.893Z,16.12
2022-10-14T23:29:12.111Z,16.16
2022-10-14T23:34:13.494Z,16.04
2022-10-14T23:39:14.738Z,15.89
2022-10-14T23:44:15.997Z,15.72
2022-10-14T23:49:31.788Z,15.58
2022-10-14T23:54:33.100Z,15.53
2022-10-14T23:59:34.302Z,15.22
